createdAt,value
2019-01-08T00:00:03.863Z,95.60
2019-01-08T00:02:47.399Z,95.60
2019-01-08T00:05:31.515Z,95.80
2019-01-08T00:08:15.505Z,95.70
2019-01-08T00:10:57.380Z,95.90
2019-01-08T00:13:41.556Z,95.90
2019-01-08T00:16:25.717Z,96.10
2019-01-08T00:19:07.977Z,96.20
2019-01-08T00:21:50.148Z,96.30
2019-01-08T00:24:32.435Z,96.30
2019-01-08T00:27:15.196Z,96.40
2019-01-08T00:29:56.981Z,96.50
2019-01-08T00:32:38.837Z,96.70
2019-01-08T00:35:21.175Z,96.70
2019-01-08T00:38:03.099Z,96.90
2019-01-08T00:40:44.991Z,96.90
2019-01-08T00:43:26.843Z,96.90
2019-01-08T00:46:10.570Z,97.00
2019-01-08T00:48:52.668Z,97.00
2019-01-08T00:51:34.642Z,97.10
2019-01-08T00:54:16.717Z,97.10
2019-01-08T00:56:59.456Z,97.20
2019-01-08T00:59:41.305Z,97.30
2019-01-08T01:02:25.484Z,97.80
2019-01-08T01:05:09.620Z,97.50
2019-01-08T01:07:53.790Z,97.70
2019-01-08T01:10:35.956Z,97.70
2019-01-08T01:13:18.036Z,97.80
2019-01-08T01:16:00.257Z,97.90
2019-01-08T01:18:42.157Z,97.80
2019-01-08T01:21:23.975Z,97.80
2019-01-08T01:24:07.910Z,97.70
2019-01-08T01:26:49.865Z,97.60
2019-01-08T01:29:34.015Z,97.50
2019-01-08T01:32:18.085Z,97.50
2019-01-08T01:35:00.274Z,97.50
2019-01-08T01:37:42.328Z,97.40
2019-01-08T01:40:26.247Z,97.40
2019-01-08T01:43:10.326Z,97.30
2019-01-08T01:45:52.384Z,97.20
2019-01-08T01:48:34.246Z,97.10
2019-01-08T01:51:18.102Z,97.10
2019-01-08T01:54:02.143Z,97.00
2019-01-08T01:56:46.283Z,97.00
2019-01-08T01:59:29.272Z,97.00
2019-01-08T02:02:11.365Z,97.00
2019-01-08T02:04:54.232Z,96.90
2019-01-08T02:07:36.193Z,96.80
2019-01-08T02:10:18.279Z,96.70
2019-01-08T02:13:00.105Z,96.70
2019-01-08T02:15:42.331Z,96.70
2019-01-08T02:18:24.383Z,96.70
2019-01-08T02:21:06.508Z,96.70
2019-01-08T02:23:48.505Z,96.80
2019-01-08T02:26:30.651Z,96.80
2019-01-08T02:29:16.610Z,97.10
2019-01-08T02:31:58.173Z,97.40
2019-01-08T02:34:42.169Z,97.90
2019-01-08T02:37:26.296Z,97.80
2019-01-08T02:40:10.309Z,97.50
2019-01-08T02:42:54.374Z,97.10
2019-01-08T02:45:37.623Z,96.50
2019-01-08T02:48:19.936Z,96.10
2019-01-08T02:51:02.318Z,95.70
2019-01-08T02:53:45.462Z,95.40
2019-01-08T02:56:29.430Z,95.10
2019-01-08T02:59:11.235Z,94.40
2019-01-08T03:01:55.297Z,94.00
2019-01-08T03:04:37.253Z,93.70
2019-01-08T03:07:21.467Z,93.50
2019-01-08T03:10:05.587Z,93.30
2019-01-08T03:12:47.630Z,93.10
2019-01-08T03:15:30.497Z,93.10
2019-01-08T03:18:14.485Z,92.90
2019-01-08T03:20:58.675Z,92.80
2019-01-08T03:23:42.533Z,92.80
2019-01-08T03:26:24.392Z,92.80
2019-01-08T03:29:06.331Z,92.80
2019-01-08T03:31:49.199Z,92.80
2019-01-08T03:34:31.063Z,92.70
2019-01-08T03:37:12.925Z,92.40
2019-01-08T03:39:56.862Z,92.30
2019-01-08T03:42:38.830Z,92.10
2019-01-08T03:45:23.048Z,91.90
2019-01-08T03:48:06.945Z,91.70
2019-01-08T03:50:49.171Z,91.60
2019-01-08T03:53:33.167Z,91.60
2019-01-08T03:56:16.668Z,91.60
2019-01-08T03:58:58.735Z,91.40
2019-01-08T04:01:42.527Z,91.30
2019-01-08T04:04:24.615Z,91.20
2019-01-08T04:07:06.976Z,91.00
2019-01-08T04:09:50.139Z,90.60
2019-01-08T04:12:34.238Z,90.50
2019-01-08T04:15:17.182Z,90.20
2019-01-08T04:18:01.093Z,90.00
2019-01-08T04:20:44.375Z,89.30
2019-01-08T04:23:26.024Z,89.00
2019-01-08T04:26:07.850Z,88.70
2019-01-08T04:28:49.820Z,88.50
2019-01-08T04:31:31.688Z,88.40
2019-01-08T04:34:13.723Z,88.30
2019-01-08T04:36:55.986Z,87.50
2019-01-08T04:39:38.169Z,87.30
2019-01-08T04:42:20.481Z,86.80
2019-01-08T04:45:04.372Z,86.30
2019-01-08T04:47:46.545Z,86.20
2019-01-08T04:50:30.831Z,85.90
2019-01-08T04:53:13.371Z,85.70
2019-01-08T04:55:55.318Z,85.40
2019-01-08T04:58:37.210Z,84.90
2019-01-08T05:01:21.199Z,84.90
2019-01-08T05:04:05.356Z,84.60
2019-01-08T05:06:47.589Z,84.50
2019-01-08T05:09:29.736Z,84.60
2019-01-08T05:12:11.767Z,85.30
2019-01-08T05:14:53.905Z,85.90
2019-01-08T05:17:36.192Z,86.50
2019-01-08T05:20:19.112Z,86.90
2019-01-08T05:23:01.382Z,87.20
2019-01-08T05:25:44.280Z,87.60
2019-01-08T05:28:26.043Z,87.90
2019-01-08T05:31:08.140Z,88.20
2019-01-08T05:33:49.913Z,88.70
2019-01-08T05:36:32.834Z,89.40
2019-01-08T05:39:15.141Z,90.20
2019-01-08T05:41:57.059Z,90.60
2019-01-08T05:44:39.115Z,90.90
2019-01-08T05:47:22.082Z,91.30
2019-01-08T05:50:05.920Z,91.40
2019-01-08T05:52:48.880Z,91.70
2019-01-08T05:55:32.975Z,91.90
2019-01-08T05:58:15.170Z,92.30
2019-01-08T06:00:59.203Z,92.40
2019-01-08T06:03:43.228Z,92.70
2019-01-08T06:06:27.484Z,92.90
2019-01-08T06:09:09.873Z,93.30
2019-01-08T06:11:52.261Z,93.50
2019-01-08T06:14:34.024Z,93.70
2019-01-08T06:17:16.151Z,94.00
2019-01-08T06:19:58.123Z,94.20
2019-01-08T06:22:40.390Z,94.20
2019-01-08T06:25:22.703Z,94.50
2019-01-08T06:28:06.567Z,94.60
2019-01-08T06:30:48.692Z,94.70
2019-01-08T06:33:32.738Z,94.80
2019-01-08T06:36:14.753Z,94.80
2019-01-08T06:38:56.889Z,94.90
2019-01-08T06:41:39.996Z,95.00
2019-01-08T06:44:21.451Z,95.10
2019-01-08T06:47:03.653Z,95.30
2019-01-08T06:49:45.450Z,95.40
2019-01-08T06:52:28.572Z,95.50
2019-01-08T06:55:12.413Z,95.50
2019-01-08T06:57:54.868Z,95.60
2019-01-08T07:00:36.526Z,95.70
2019-01-08T07:03:18.992Z,95.30
2019-01-08T07:06:01.577Z,95.30
2019-01-08T07:08:44.372Z,95.10
2019-01-08T07:11:26.318Z,95.10
2019-01-08T07:14:08.365Z,95.10
2019-01-08T07:16:50.381Z,95.10
2019-01-08T07:19:32.544Z,95.10
2019-01-08T07:22:14.416Z,95.20
2019-01-08T07:24:57.277Z,95.20
2019-01-08T07:27:39.333Z,95.30
2019-01-08T07:30:21.472Z,95.40
2019-01-08T07:33:05.486Z,95.30
2019-01-08T07:35:47.589Z,95.20
2019-01-08T07:38:29.605Z,95.20
2019-01-08T07:41:11.595Z,95.20
2019-01-08T07:43:53.516Z,95.20
2019-01-08T07:46:36.299Z,95.30
2019-01-08T07:49:20.480Z,95.40
2019-01-08T07:52:02.689Z,95.50
2019-01-08T07:54:46.986Z,95.50
2019-01-08T07:57:30.942Z,95.50
2019-01-08T08:00:12.867Z,95.50
2019-01-08T08:02:55.534Z,95.50
2019-01-08T08:05:37.503Z,95.50
2019-01-08T08:08:19.626Z,95.50
2019-01-08T08:11:01.386Z,95.40
2019-01-08T08:13:44.230Z,95.50
2019-01-08T08:16:28.467Z,95.50
2019-01-08T08:19:10.592Z,95.80
2019-01-08T08:21:54.652Z,95.90
2019-01-08T08:24:36.605Z,96.10
2019-01-08T08:27:18.518Z,96.10
2019-01-08T08:30:02.407Z,96.10
2019-01-08T08:32:45.406Z,96.10
2019-01-08T08:35:27.570Z,96.10
2019-01-08T08:38:11.739Z,96.00
2019-01-08T08:40:55.756Z,96.10
2019-01-08T08:43:41.005Z,96.10
2019-01-08T08:46:25.133Z,96.10
2019-01-08T08:49:09.052Z,96.10
2019-01-08T08:51:53.157Z,96.20
2019-01-08T08:54:37.086Z,96.20
2019-01-08T08:57:19.056Z,96.30
2019-01-08T09:00:03.313Z,96.30
2019-01-08T09:02:47.407Z,96.50
2019-01-08T09:05:31.715Z,96.50
2019-01-08T09:08:15.642Z,96.60
2019-01-08T09:10:57.824Z,96.60
2019-01-08T09:13:40.727Z,96.60
2019-01-08T09:16:11.162Z,96.60
2019-01-08T09:19:00.620Z,96.70
2019-01-08T09:21:44.320Z,96.90
2019-01-08T09:24:27.467Z,96.80
2019-01-08T09:27:09.541Z,96.70
2019-01-08T09:29:51.641Z,96.50
2019-01-08T09:32:33.406Z,96.30
2019-01-08T09:35:15.685Z,96.10
2019-01-08T09:37:57.225Z,95.90
2019-01-08T09:40:39.496Z,95.70
2019-01-08T09:43:21.639Z,95.40
2019-01-08T09:46:03.819Z,95.20
2019-01-08T09:48:46.768Z,95.10
2019-01-08T09:51:29.514Z,95.10
2019-01-08T09:54:13.649Z,94.90
2019-01-08T09:56:55.558Z,94.70
2019-01-08T09:59:39.727Z,94.50
2019-01-08T10:02:21.925Z,94.40
2019-01-08T10:05:04.242Z,94.30
2019-01-08T10:07:46.469Z,94.00
2019-01-08T10:10:28.819Z,93.70
2019-01-08T10:13:12.159Z,93.60
2019-01-08T10:15:53.646Z,93.30
2019-01-08T10:18:36.933Z,93.20
2019-01-08T10:21:21.013Z,93.10
2019-01-08T10:24:03.942Z,93.00
2019-01-08T10:26:48.168Z,92.90
2019-01-08T10:29:30.945Z,92.90
2019-01-08T10:32:15.032Z,92.40
2019-01-08T10:34:59.587Z,92.50
2019-01-08T10:37:41.742Z,92.50
2019-01-08T10:40:23.615Z,92.50
2019-01-08T10:43:05.806Z,92.50
2019-01-08T10:45:47.475Z,92.40
2019-01-08T10:48:31.334Z,92.20
2019-01-08T10:51:14.334Z,92.30
2019-01-08T10:53:58.306Z,92.20
2019-01-08T10:56:42.481Z,92.10
2019-01-08T10:59:26.545Z,91.80
2019-01-08T11:02:10.599Z,91.60
2019-01-08T11:04:52.406Z,91.40
2019-01-08T11:07:34.524Z,91.10
2019-01-08T11:10:16.677Z,90.90
2019-01-08T11:12:59.645Z,90.50
2019-01-08T11:15:41.216Z,90.20
2019-01-08T11:18:23.482Z,89.50
2019-01-08T11:21:05.615Z,88.60
2019-01-08T11:23:47.916Z,87.20
2019-01-08T11:26:31.909Z,86.80
2019-01-08T11:29:15.805Z,86.90
2019-01-08T11:31:57.843Z,86.80
2019-01-08T11:34:40.037Z,86.60
2019-01-08T11:37:23.774Z,88.10
2019-01-08T11:40:06.158Z,90.30
2019-01-08T11:42:50.278Z,85.20
2019-01-08T11:45:34.560Z,84.20
2019-01-08T11:48:18.628Z,84.10
2019-01-08T11:51:02.782Z,84.60
2019-01-08T11:53:44.905Z,83.90
2019-01-08T11:56:26.947Z,83.20
2019-01-08T11:59:09.348Z,80.90
2019-01-08T12:01:57.142Z,75.10
2019-01-08T12:04:36.132Z,60.90
2019-01-08T12:07:18.870Z,49.70
2019-01-08T12:10:01.713Z,42.80
2019-01-08T12:12:44.877Z,37.00
2019-01-08T12:15:28.480Z,33.50
2019-01-08T12:18:10.347Z,31.70
2019-01-08T12:20:52.535Z,31.50
2019-01-08T12:23:34.948Z,31.20
2019-01-08T12:26:18.823Z,33.50
2019-01-08T12:29:00.827Z,37.20
2019-01-08T12:31:42.797Z,42.20
2019-01-08T12:34:24.613Z,58.60
2019-01-08T12:37:08.804Z,51.70
2019-01-08T12:39:50.970Z,55.70
2019-01-08T12:42:33.374Z,58.80
2019-01-08T12:45:16.208Z,61.90
2019-01-08T12:47:58.363Z,64.20
2019-01-08T12:50:41.233Z,66.40
2019-01-08T12:53:23.176Z,68.60
2019-01-08T12:56:05.136Z,78.00
2019-01-08T12:58:47.380Z,71.30
2019-01-08T13:01:29.530Z,72.40
2019-01-08T13:04:11.473Z,72.90
2019-01-08T13:06:53.175Z,73.30
2019-01-08T13:09:37.225Z,73.50
2019-01-08T13:12:21.295Z,73.50
2019-01-08T13:15:05.211Z,73.70
2019-01-08T13:17:47.082Z,73.60
2019-01-08T13:20:28.959Z,73.80
2019-01-08T13:23:11.697Z,73.70
2019-01-08T13:25:53.249Z,72.50
2019-01-08T13:28:35.171Z,69.80
2019-01-08T13:31:19.112Z,67.80
2019-01-08T13:34:03.369Z,68.30
2019-01-08T13:36:47.443Z,69.10
2019-01-08T13:39:31.465Z,69.80
2019-01-08T13:42:15.636Z,70.20
2019-01-08T13:44:59.862Z,71.40
2019-01-08T13:47:41.871Z,72.30
2019-01-08T13:50:23.639Z,73.00
2019-01-08T13:53:07.694Z,73.80
2019-01-08T13:55:51.607Z,74.80
2019-01-08T14:01:43.272Z,76.80
2019-01-08T14:04:25.648Z,77.50
2019-01-08T14:07:07.652Z,78.20
2019-01-08T14:09:49.754Z,78.80
2019-01-08T14:12:32.324Z,79.40
2019-01-08T14:15:14.412Z,79.80
2019-01-08T14:17:56.565Z,80.40
2019-01-08T14:20:38.871Z,80.40
2019-01-08T14:23:20.729Z,80.40
2019-01-08T14:26:04.604Z,80.60
2019-01-08T14:28:48.683Z,80.60
2019-01-08T14:31:30.957Z,80.20
2019-01-08T14:34:13.080Z,79.60
2019-01-08T14:36:55.046Z,79.60
2019-01-08T14:39:36.598Z,79.80
2019-01-08T14:42:20.514Z,80.20
2019-01-08T14:45:04.384Z,80.00
2019-01-08T14:47:46.483Z,80.00
2019-01-08T14:50:28.443Z,80.40
2019-01-08T14:53:10.458Z,80.60
2019-01-08T14:55:52.345Z,81.00
2019-01-08T14:58:34.115Z,81.00
2019-01-08T15:01:17.214Z,84.80
2019-01-08T15:04:01.232Z,84.20
2019-01-08T15:06:43.405Z,80.10
2019-01-08T15:09:25.339Z,80.90
2019-01-08T15:12:08.291Z,80.70
2019-01-08T15:14:52.154Z,81.30
2019-01-08T15:17:34.822Z,81.90
2019-01-08T15:20:16.744Z,82.40
2019-01-08T15:22:58.572Z,82.90
2019-01-08T15:25:40.629Z,83.20
2019-01-08T15:28:23.289Z,83.40
2019-01-08T15:31:04.975Z,83.40
2019-01-08T15:33:46.800Z,83.50
2019-01-08T15:36:28.629Z,83.60
2019-01-08T15:39:11.528Z,83.30
2019-01-08T15:41:58.821Z,83.10
2019-01-08T15:44:40.969Z,83.10
2019-01-08T15:47:22.770Z,83.30
2019-01-08T15:50:06.954Z,83.60
2019-01-08T15:52:48.893Z,83.30
2019-01-08T15:55:31.713Z,83.10
2019-01-08T15:58:13.690Z,83.20
2019-01-08T16:00:55.474Z,83.20
2019-01-08T16:03:37.412Z,83.40
2019-01-08T16:06:20.217Z,83.60
2019-01-08T16:09:05.068Z,83.70
2019-01-08T16:11:47.253Z,83.70
2019-01-08T16:14:29.427Z,83.60
2019-01-08T16:17:11.409Z,83.70
2019-01-08T16:19:53.497Z,84.00
2019-01-08T16:22:35.718Z,84.10
2019-01-08T16:25:18.078Z,84.40
2019-01-08T16:28:00.488Z,84.60
2019-01-08T16:30:42.615Z,84.60
2019-01-08T16:33:24.324Z,84.50
2019-01-08T16:36:06.552Z,84.60
2019-01-08T16:38:48.847Z,84.50
2019-01-08T16:41:30.585Z,84.40
2019-01-08T16:44:12.514Z,84.70
2019-01-08T16:46:55.437Z,85.10
2019-01-08T16:49:39.757Z,85.30
2019-01-08T16:52:22.755Z,85.20
2019-01-08T16:55:06.568Z,85.20
2019-01-08T16:57:48.597Z,85.40
2019-01-08T17:00:32.819Z,85.50
2019-01-08T17:03:24.513Z,85.70
2019-01-08T17:06:00.283Z,86.00
2019-01-08T17:08:43.215Z,86.20
2019-01-08T17:11:27.137Z,86.70
2019-01-08T17:14:09.864Z,87.00
2019-01-08T17:16:51.796Z,86.90
2019-01-08T17:19:34.084Z,87.50
2019-01-08T17:22:15.919Z,87.60
2019-01-08T17:24:58.151Z,88.20
2019-01-08T17:27:40.482Z,88.00
2019-01-08T17:30:23.493Z,88.00
2019-01-08T17:33:05.180Z,88.30
2019-01-08T17:35:47.434Z,88.00
2019-01-08T17:38:29.678Z,88.70
2019-01-08T17:41:13.948Z,88.10
2019-01-08T17:43:58.154Z,88.10
2019-01-08T17:46:40.305Z,88.20
2019-01-08T17:49:22.346Z,88.40
2019-01-08T17:52:04.133Z,88.40
2019-01-08T17:54:46.519Z,88.40
2019-01-08T17:57:28.794Z,88.40
2019-01-08T18:00:11.012Z,88.30
2019-01-08T18:02:53.044Z,88.10
2019-01-08T18:05:35.006Z,87.70
2019-01-08T18:08:17.085Z,88.00
2019-01-08T18:10:59.522Z,88.10
2019-01-08T18:13:42.207Z,88.30
2019-01-08T18:16:24.199Z,88.20
2019-01-08T18:19:06.400Z,88.00
2019-01-08T18:21:48.401Z,87.40
2019-01-08T18:24:30.586Z,87.30
2019-01-08T18:27:12.658Z,86.50
2019-01-08T18:29:54.828Z,86.00
2019-01-08T18:32:38.945Z,85.80
2019-01-08T18:35:23.148Z,85.50
2019-01-08T18:38:07.002Z,85.20
2019-01-08T18:40:49.226Z,84.60
2019-01-08T18:43:32.192Z,84.80
2019-01-08T18:46:15.592Z,84.50
2019-01-08T18:48:57.991Z,83.90
2019-01-08T18:51:39.810Z,83.50
2019-01-08T18:54:23.840Z,83.70
2019-01-08T18:57:05.971Z,83.80
2019-01-08T18:59:48.154Z,83.50
2019-01-08T19:02:29.801Z,83.30
2019-01-08T19:05:13.920Z,83.40
2019-01-08T19:07:57.949Z,83.90
2019-01-08T19:10:42.042Z,83.80
2019-01-08T19:13:26.254Z,84.20
2019-01-08T19:16:07.967Z,84.60
2019-01-08T19:18:49.990Z,84.70
2019-01-08T19:21:31.849Z,84.70
2019-01-08T19:24:14.215Z,84.60
2019-01-08T19:26:58.776Z,84.50
2019-01-08T19:29:40.490Z,84.60
2019-01-08T19:32:24.758Z,84.10
2019-01-08T19:35:08.944Z,84.10
2019-01-08T19:37:50.555Z,83.80
2019-01-08T19:40:32.623Z,83.80
2019-01-08T19:43:16.861Z,84.10
2019-01-08T19:46:01.038Z,84.00
2019-01-08T19:48:42.907Z,83.90
2019-01-08T19:51:27.212Z,83.90
2019-01-08T19:54:11.389Z,83.80
2019-01-08T19:56:53.448Z,83.60
2019-01-08T19:59:35.555Z,83.70
2019-01-08T20:02:17.151Z,83.80
2019-01-08T20:05:00.002Z,84.10
2019-01-08T20:07:41.649Z,83.90
2019-01-08T20:10:23.546Z,83.80
2019-01-08T20:13:05.836Z,84.10
2019-01-08T20:15:47.924Z,84.20
2019-01-08T20:18:32.048Z,84.60
2019-01-08T20:21:13.997Z,84.90
2019-01-08T20:23:56.100Z,85.10
2019-01-08T20:26:38.088Z,85.20
2019-01-08T20:29:22.069Z,85.10
2019-01-08T20:32:06.243Z,85.40
2019-01-08T20:34:48.679Z,85.40
2019-01-08T20:37:33.334Z,85.40
2019-01-08T20:40:17.591Z,85.20
2019-01-08T20:42:59.800Z,85.10
2019-01-08T20:45:41.988Z,85.10
2019-01-08T20:48:23.918Z,84.70
2019-01-08T20:50:55.357Z,84.80
2019-01-08T20:53:39.943Z,84.80
2019-01-08T20:56:24.177Z,85.20
2019-01-08T20:59:06.318Z,85.00
2019-01-08T21:01:48.505Z,84.90
2019-01-08T21:04:35.291Z,85.10
2019-01-08T21:07:14.946Z,84.90
2019-01-08T21:09:57.894Z,85.00
2019-01-08T21:12:40.809Z,84.90
2019-01-08T21:15:23.285Z,84.80
2019-01-08T21:18:07.619Z,84.80
2019-01-08T21:20:50.332Z,84.60
2019-01-08T21:23:34.884Z,84.40
2019-01-08T21:26:16.998Z,84.50
2019-01-08T21:29:00.625Z,84.30
2019-01-08T21:31:44.888Z,84.50
2019-01-08T21:34:28.572Z,84.60
2019-01-08T21:37:10.519Z,84.50
2019-01-08T21:39:52.414Z,84.40
2019-01-08T21:42:34.176Z,84.60
2019-01-08T21:45:18.449Z,84.80
2019-01-08T21:48:02.759Z,84.80
2019-01-08T21:50:45.010Z,85.90
2019-01-08T21:53:27.156Z,85.00
2019-01-08T21:56:09.147Z,85.00
2019-01-08T21:58:51.421Z,85.30
2019-01-08T22:01:33.472Z,85.30
2019-01-08T22:04:15.985Z,85.10
2019-01-08T22:06:58.542Z,85.30
2019-01-08T22:09:40.470Z,85.50
2019-01-08T22:12:22.597Z,85.60
2019-01-08T22:15:04.817Z,85.80
2019-01-08T22:17:47.014Z,85.70
2019-01-08T22:20:29.090Z,85.60
2019-01-08T22:23:11.825Z,85.80
2019-01-08T22:25:54.083Z,86.00
2019-01-08T22:28:35.947Z,86.10
2019-01-08T22:31:17.951Z,85.90
2019-01-08T22:33:59.863Z,85.90
2019-01-08T22:36:42.691Z,86.00
2019-01-08T22:39:24.741Z,86.00
2019-01-08T22:42:07.006Z,85.50
2019-01-08T22:44:49.063Z,85.20
2019-01-08T22:47:31.072Z,85.20
2019-01-08T22:50:13.326Z,85.10
2019-01-08T22:52:56.173Z,85.10
2019-01-08T22:55:38.336Z,84.90
2019-01-08T22:58:20.414Z,84.70
2019-01-08T23:01:24.335Z,84.40
2019-01-08T23:04:06.361Z,84.20
2019-01-08T23:06:48.598Z,83.90
2019-01-08T23:09:30.790Z,83.80
2019-01-08T23:12:12.969Z,83.60
2019-01-08T23:14:56.227Z,83.50
2019-01-08T23:17:39.984Z,83.40
2019-01-08T23:20:22.031Z,83.60
2019-01-08T23:23:04.265Z,83.50
2019-01-08T23:25:47.491Z,83.30
2019-01-08T23:28:31.688Z,83.40
2019-01-08T23:31:14.496Z,83.60
2019-01-08T23:33:58.701Z,83.60
2019-01-08T23:36:40.652Z,83.70
2019-01-08T23:39:24.717Z,83.80
2019-01-08T23:42:08.314Z,83.70
2019-01-08T23:44:50.152Z,83.60
2019-01-08T23:47:32.253Z,83.60
2019-01-08T23:50:14.463Z,83.60
2019-01-08T23:52:56.770Z,83.90
2019-01-08T23:55:40.721Z,84.00
2019-01-08T23:58:22.892Z,84.30
